Time;durP1;ratioP1;P1;durP2;ratioP2;P2;SDS_P1;SDS_P2;PMS_P1;PMS_P2;Temp;Humidity;BMP_temperature;BMP_pressure;BME280_temperature;BME280_humidity;BME280_pressure;Samples;Min_cycle;Max_cycle;Signal;HPM_P1;HPM_P2
2021/04/09 00:02:11;;;;;;;;;2.50;2.50;;;;;;;;3516749;39;113353;-73
2021/04/09 00:04:38;;;;;;;;;2.00;2.00;;;;;;;;3516774;39;113066;-77
2021/04/09 00:07:04;;;;;;;;;7.00;4.75;;;;;;;;3518747;39;113738;-74
2021/04/09 00:09:30;;;;;;;;;8.75;4.00;;;;;;;;3518946;39;114011;-75
2021/04/09 00:11:56;;;;;;;;;5.00;5.00;;;;;;;;3519485;39;111864;-74
2021/04/09 00:14:23;;;;;;;;;4.50;4.00;;;;;;;;3516958;39;113204;-74
2021/04/09 00:16:49;;;;;;;;;4.00;4.00;;;;;;;;3513660;39;114228;-74
2021/04/09 00:19:16;;;;;;;;;4.75;4.00;;;;;;;;3519914;39;111919;-74
2021/04/09 00:21:43;;;;;;;;;4.00;4.00;;;;;;;;3518700;39;113554;-74
2021/04/09 00:24:09;;;;;;;;;5.00;2.00;;;;;;;;3515910;39;114121;-74
2021/04/09 00:26:36;;;;;;;;;6.50;4.00;;;;;;;;3520402;39;111967;-73
2021/04/09 00:29:02;;;;;;;;;6.50;4.00;;;;;;;;3518584;39;113837;-74
2021/04/09 00:31:29;;;;;;;;;7.00;4.75;;;;;;;;3517235;39;112688;-75
2021/04/09 00:33:55;;;;;;;;;4.50;4.50;;;;;;;;3518635;39;113766;-75
2021/04/09 00:36:21;;;;;;;;;4.00;4.00;;;;;;;;3517094;39;113077;-74
2021/04/09 00:38:47;;;;;;;;;4.00;4.00;;;;;;;;3519726;39;111931;-75
2021/04/09 00:41:13;;;;;;;;;8.25;5.00;;;;;;;;3512177;39;114020;-74
2021/04/09 00:43:39;;;;;;;;;5.67;4.00;;;;;;;;3516066;39;114030;-75
2021/04/09 00:46:05;;;;;;;;;3.00;2.00;;;;;;;;3519821;39;112050;-74
2021/04/09 00:48:32;;;;;;;;;5.25;4.00;;;;;;;;3520863;39;115545;-76
2021/04/09 00:50:58;;;;;;;;;6.00;4.00;;;;;;;;3516446;39;112321;-74
2021/04/09 00:53:26;;;;;;;;;4.67;4.67;;;;;;;;3515637;39;113474;-75
2021/04/09 00:55:52;;;;;;;;;5.00;3.33;;;;;;;;3516303;39;114168;-76
2021/04/09 00:58:18;;;;;;;;;5.00;5.00;;;;;;;;3513011;39;112076;-74
2021/04/09 01:00:44;;;;;;;;;4.00;4.00;;;;;;;;3517831;39;113440;-76
2021/04/09 01:03:10;;;;;;;;;6.67;5.00;;;;;;;;3513845;39;113989;-75
2021/04/09 01:05:37;;;;;;;;;4.00;4.00;;;;;;;;3517794;39;112068;-76
2021/04/09 01:08:06;;;;;;;;;4.00;4.00;;;;;;;;3515877;39;113387;-75
2021/04/09 01:10:32;;;;;;;;;4.50;2.00;;;;;;;;3517665;39;114364;-75
2021/04/09 01:12:58;;;;;;;;;6.00;5.00;;;;;;;;3516383;39;113239;-74
2021/04/09 01:15:24;;;;;;;;;4.67;4.67;;;;;;;;3516019;39;114132;-74
2021/04/09 01:17:54;;;;;;;;;4.00;4.00;;;;;;;;3517595;39;111871;-75
2021/04/09 01:20:29;;;;;;;;;4.67;4.00;;;;;;;;3515207;39;113933;-75
2021/04/09 01:23:02;;;;;;;;;4.67;4.67;;;;;;;;3516586;39;113925;-75
2021/04/09 01:25:49;;;;;;;;;5.67;5.67;;;;;;;;3518876;39;111870;-75
2021/04/09 01:28:17;;;;;;;;;5.00;5.00;;;;;;;;3516585;39;113012;-75
2021/04/09 01:30:52;;;;;;;;;7.33;5.00;;;;;;;;3517578;39;114269;-75
2021/04/09 01:33:20;;;;;;;;;9.00;5.00;;;;;;;;3515708;39;112108;-75
2021/04/09 01:35:50;;;;;;;;;6.67;5.00;;;;;;;;3519228;39;113992;-76
2021/04/09 01:38:18;;;;;;;;;6.00;5.00;;;;;;;;3518253;39;111833;-75
2021/04/09 01:40:45;;;;;;;;;6.00;6.00;;;;;;;;3519640;39;113627;-74
2021/04/09 01:43:20;;;;;;;;;7.00;5.33;;;;;;;;3515791;39;113907;-76
2021/04/09 01:45:48;;;;;;;;;5.00;5.00;;;;;;;;3516811;39;111895;-74
2021/04/09 01:48:14;;;;;;;;;9.00;6.00;;;;;;;;3517618;39;113795;-75
2021/04/09 01:50:42;;;;;;;;;4.00;4.00;;;;;;;;3515197;39;114209;-73
2021/04/09 01:53:11;;;;;;;;;4.00;4.00;;;;;;;;3518533;39;111768;-75
2021/04/09 01:55:41;;;;;;;;;4.00;4.00;;;;;;;;3515855;39;113892;-75
2021/04/09 01:58:10;;;;;;;;;6.00;5.00;;;;;;;;3519602;39;112318;-75
2021/04/09 02:00:36;;;;;;;;;4.00;4.00;;;;;;;;3518179;39;113430;-76
2021/04/09 02:03:03;;;;;;;;;4.00;4.00;;;;;;;;3514840;39;114050;-75
2021/04/09 02:05:31;;;;;;;;;4.00;4.00;;;;;;;;3518542;39;112274;-74
2021/04/09 02:07:58;;;;;;;;;4.33;4.33;;;;;;;;3514937;39;113840;-74
2021/04/09 02:10:25;;;;;;;;;5.00;4.33;;;;;;;;3517281;39;114089;-74
2021/04/09 02:12:52;;;;;;;;;9.00;4.33;;;;;;;;3519107;39;111851;-74
2021/04/09 02:15:19;;;;;;;;;3.33;2.00;;;;;;;;3520451;39;113504;-75
2021/04/09 02:17:45;;;;;;;;;6.00;4.67;;;;;;;;3519474;39;112296;-74
2021/04/09 02:20:12;;;;;;;;;2.00;2.00;;;;;;;;3517950;39;113583;-73
2021/04/09 02:22:39;;;;;;;;;4.67;4.00;;;;;;;;3515579;39;114532;-74
2021/04/09 02:25:07;;;;;;;;;4.00;4.00;;;;;;;;3519468;39;112267;-74
2021/04/09 02:27:33;;;;;;;;;5.00;4.33;;;;;;;;3518209;39;113518;-75
2021/04/09 02:30:00;;;;;;;;;5.00;5.00;;;;;;;;3518674;39;113819;-74
2021/04/09 02:32:26;;;;;;;;;5.00;5.00;;;;;;;;3518413;39;111913;-75
2021/04/09 02:34:52;;;;;;;;;4.67;4.00;;;;;;;;3516736;39;113272;-75
2021/04/09 02:37:19;;;;;;;;;7.33;6.00;;;;;;;;3521053;39;113779;-74
2021/04/09 02:39:46;;;;;;;;;4.00;4.00;;;;;;;;3518076;39;113902;-75
2021/04/09 02:42:13;;;;;;;;;9.67;5.00;;;;;;;;3512896;39;113908;-75
2021/04/09 02:44:39;;;;;;;;;7.33;5.00;;;;;;;;3519546;39;111741;-73
2021/04/09 02:47:07;;;;;;;;;5.00;5.00;;;;;;;;3517797;39;113955;-72
2021/04/09 02:49:36;;;;;;;;;7.33;4.00;;;;;;;;3518849;39;114181;-73
2021/04/09 02:52:04;;;;;;;;;7.67;7.33;;;;;;;;3517989;39;111989;-74
2021/04/09 02:54:31;;;;;;;;;7.67;5.00;;;;;;;;3518899;39;113398;-73
2021/04/09 02:56:58;;;;;;;;;4.00;2.67;;;;;;;;3517881;39;114195;-75
2021/04/09 02:59:25;;;;;;;;;5.00;2.00;;;;;;;;3520936;39;111933;-73
2021/04/09 03:01:52;;;;;;;;;7.00;5.00;;;;;;;;3518107;39;113810;-75
2021/04/09 03:04:18;;;;;;;;;4.33;4.00;;;;;;;;3518061;39;112050;-74
2021/04/09 03:06:45;;;;;;;;;0.00;0.00;;;;;;;;3519147;39;113817;-73
2021/04/09 03:09:11;;;;;;;;;4.00;4.00;;;;;;;;3517239;39;114035;-74
2021/04/09 03:11:37;;;;;;;;;5.00;2.00;;;;;;;;3515723;39;111867;-73
2021/04/09 03:14:03;;;;;;;;;4.00;4.00;;;;;;;;3519168;39;113531;-74
2021/04/09 03:16:34;;;;;;;;;4.00;2.00;;;;;;;;3517706;39;114184;-73
2021/04/09 03:19:00;;;;;;;;;4.00;4.00;;;;;;;;3518775;39;111909;-73
2021/04/09 03:21:27;;;;;;;;;8.33;2.00;;;;;;;;3520252;39;113591;-75
2021/04/09 03:23:53;;;;;;;;;4.67;2.00;;;;;;;;3518282;39;111963;-75
2021/04/09 03:26:19;;;;;;;;;5.00;5.00;;;;;;;;3518614;39;113248;-73
2021/04/09 03:28:45;;;;;;;;;8.33;4.00;;;;;;;;3517025;39;114026;-74
2021/04/09 03:31:11;;;;;;;;;1.67;1.67;;;;;;;;3519166;39;112693;-73
2021/04/09 03:33:38;;;;;;;;;4.00;4.00;;;;;;;;3515512;39;113202;-75
2021/04/09 03:36:05;;;;;;;;;3.33;3.33;;;;;;;;3518758;39;114804;-73
2021/04/09 03:38:31;;;;;;;;;2.00;2.00;;;;;;;;3515159;39;113157;-74
2021/04/09 03:40:57;;;;;;;;;2.00;2.00;;;;;;;;3518169;39;113542;-76
2021/04/09 03:43:23;;;;;;;;;4.33;4.33;;;;;;;;3520401;39;112063;-76
2021/04/09 03:45:49;;;;;;;;;2.00;2.00;;;;;;;;3518499;39;113319;-76
2021/04/09 03:48:15;;;;;;;;;7.00;4.00;;;;;;;;3517019;39;114135;-75
2021/04/09 03:50:42;;;;;;;;;4.00;4.00;;;;;;;;3519098;39;112167;-76
2021/04/09 03:53:08;;;;;;;;;6.33;2.67;;;;;;;;3517339;39;113769;-75
2021/04/09 03:55:34;;;;;;;;;7.00;5.00;;;;;;;;3518278;39;114186;-75
2021/04/09 03:58:00;;;;;;;;;4.33;2.67;;;;;;;;3517817;39;112103;-74
2021/04/09 04:00:26;;;;;;;;;4.00;2.00;;;;;;;;3516001;39;113777;-74
2021/04/09 04:02:52;;;;;;;;;3.33;3.33;;;;;;;;3519259;39;114450;-75
2021/04/09 04:05:18;;;;;;;;;4.33;3.33;;;;;;;;3518280;39;113510;-74
2021/04/09 04:07:45;;;;;;;;;3.33;3.33;;;;;;;;3516917;39;114301;-75
2021/04/09 04:10:12;;;;;;;;;2.00;2.00;;;;;;;;3518554;39;112381;-73
2021/04/09 04:12:38;;;;;;;;;2.67;2.67;;;;;;;;3517105;39;113568;-75
2021/04/09 04:15:05;;;;;;;;;4.00;4.00;;;;;;;;3519583;39;113999;-73
2021/04/09 04:17:31;;;;;;;;;7.33;4.00;;;;;;;;3518799;39;111998;-75
2021/04/09 04:19:58;;;;;;;;;4.33;4.00;;;;;;;;3519582;39;113488;-75
2021/04/09 04:22:24;;;;;;;;;2.67;2.67;;;;;;;;3518531;39;113927;-74
2021/04/09 04:24:50;;;;;;;;;8.33;5.00;;;;;;;;3521729;39;111925;-75
2021/04/09 04:27:17;;;;;;;;;9.33;2.00;;;;;;;;3519133;39;113863;-74
2021/04/09 04:29:43;;;;;;;;;6.33;6.33;;;;;;;;3518545;39;111844;-73
2021/04/09 04:32:09;;;;;;;;;4.67;4.67;;;;;;;;3520072;39;113439;-75
2021/04/09 04:34:35;;;;;;;;;5.67;5.67;;;;;;;;3514048;39;113679;-73
2021/04/09 04:37:01;;;;;;;;;7.67;5.00;;;;;;;;3519887;39;112102;-74
2021/04/09 04:39:27;;;;;;;;;6.67;6.67;;;;;;;;3518958;39;113310;-75
2021/04/09 04:41:54;;;;;;;;;2.00;2.00;;;;;;;;3518971;39;113941;-76
2021/04/09 04:44:20;;;;;;;;;5.67;5.67;;;;;;;;3517384;39;111898;-75
2021/04/09 04:46:46;;;;;;;;;5.00;5.00;;;;;;;;3521111;39;113365;-75
2021/04/09 04:49:13;;;;;;;;;4.67;4.00;;;;;;;;3519704;39;111837;-77
2021/04/09 04:51:39;;;;;;;;;4.00;4.00;;;;;;;;3518495;39;113340;-75
2021/04/09 04:54:05;;;;;;;;;5.00;4.67;;;;;;;;3515854;39;113881;-75
2021/04/09 04:56:31;;;;;;;;;6.00;6.00;;;;;;;;3519929;39;112006;-75
2021/04/09 04:58:58;;;;;;;;;10.67;7.67;;;;;;;;3518678;39;113645;-74
2021/04/09 05:01:24;;;;;;;;;15.00;14.00;;;;;;;;3518853;39;114281;-74
2021/04/09 05:03:50;;;;;;;;;17.00;12.67;;;;;;;;3519173;39;111981;-73
2021/04/09 05:06:16;;;;;;;;;12.33;8.00;;;;;;;;3518555;39;113241;-75
2021/04/09 05:08:42;;;;;;;;;11.33;11.00;;;;;;;;3521808;39;113874;-76
2021/04/09 05:11:09;;;;;;;;;11.33;9.67;;;;;;;;3518184;39;113525;-75
2021/04/09 05:13:35;;;;;;;;;10.67;9.33;;;;;;;;3515818;39;114165;-75
2021/04/09 05:16:02;;;;;;;;;13.33;13.33;;;;;;;;3519900;39;112029;-73
2021/04/09 05:18:28;;;;;;;;;11.00;11.00;;;;;;;;3518548;39;113554;-74
2021/04/09 05:20:54;;;;;;;;;12.00;11.00;;;;;;;;3518790;39;114197;-75
2021/04/09 05:23:20;;;;;;;;;15.00;13.33;;;;;;;;3519142;39;111860;-74
2021/04/09 05:25:46;;;;;;;;;15.00;13.33;;;;;;;;3518523;39;113216;-74
2021/04/09 05:28:12;;;;;;;;;12.00;11.00;;;;;;;;3519137;39;113704;-75
2021/04/09 05:30:38;;;;;;;;;15.67;15.00;;;;;;;;3521163;39;112887;-73
2021/04/09 05:33:05;;;;;;;;;13.00;10.67;;;;;;;;3513345;39;115040;-74
2021/04/09 05:35:31;;;;;;;;;15.00;14.33;;;;;;;;3518257;39;112052;-74
2021/04/09 05:37:57;;;;;;;;;16.67;16.00;;;;;;;;3519407;39;113299;-74
2021/04/09 05:40:23;;;;;;;;;16.00;16.00;;;;;;;;3518316;39;114095;-73
2021/04/09 05:42:55;;;;;;;;;15.67;15.33;;;;;;;;3520386;39;111848;-74
2021/04/09 05:45:21;;;;;;;;;17.33;16.00;;;;;;;;3518778;39;113446;-75
2021/04/09 05:47:48;;;;;;;;;17.00;15.00;;;;;;;;3518670;39;114393;-74
2021/04/09 05:50:15;;;;;;;;;21.33;18.33;;;;;;;;3514894;39;113183;-73
2021/04/09 05:52:41;;;;;;;;;19.00;14.33;;;;;;;;3519289;39;113886;-73
2021/04/09 05:55:08;;;;;;;;;17.67;16.00;;;;;;;;3518110;39;112004;-73
2021/04/09 05:57:34;;;;;;;;;17.00;15.67;;;;;;;;3516419;39;113979;-74
2021/04/09 06:00:00;;;;;;;;;25.67;16.67;;;;;;;;3519304;39;112989;-75
2021/04/09 06:02:26;;;;;;;;;7.33;7.33;;;;;;;;3518647;39;112120;-74
2021/04/09 06:04:52;;;;;;;;;20.00;14.00;;;;;;;;3519146;39;113751;-73
2021/04/09 06:07:19;;;;;;;;;13.00;12.33;;;;;;;;3516447;39;113999;-74
2021/04/09 06:09:46;;;;;;;;;20.67;16.00;;;;;;;;3518235;39;112023;-75
2021/04/09 06:12:12;;;;;;;;;7.00;5.67;;;;;;;;3519574;39;113411;-74
2021/04/09 06:14:38;;;;;;;;;16.00;13.00;;;;;;;;3519651;39;112632;-73
2021/04/09 06:17:05;;;;;;;;;15.00;15.00;;;;;;;;3515852;39;113111;-72
2021/04/09 06:19:31;;;;;;;;;18.67;14.67;;;;;;;;3518962;39;114463;-72
2021/04/09 06:21:57;;;;;;;;;16.00;13.67;;;;;;;;3514796;39;112447;-72
2021/04/09 06:24:24;;;;;;;;;13.67;13.00;;;;;;;;3517996;39;113466;-73
2021/04/09 06:26:50;;;;;;;;;15.67;14.33;;;;;;;;3513631;39;114151;-72
2021/04/09 06:29:16;;;;;;;;;15.67;15.67;;;;;;;;3516188;39;112078;-73
2021/04/09 06:31:45;;;;;;;;;13.00;12.00;;;;;;;;3519006;39;113771;-72
2021/04/09 06:34:11;;;;;;;;;18.33;15.67;;;;;;;;3515845;39;114460;-71
2021/04/09 06:36:37;;;;;;;;;20.00;16.67;;;;;;;;3517196;39;113877;-75
2021/04/09 06:39:03;;;;;;;;;16.33;15.00;;;;;;;;3518723;39;113957;-72
2021/04/09 06:41:30;;;;;;;;;16.33;13.00;;;;;;;;3517395;39;111993;-73
2021/04/09 06:43:59;;;;;;;;;13.33;13.00;;;;;;;;3518362;39;113660;-74
2021/04/09 06:46:28;;;;;;;;;15.33;13.67;;;;;;;;3512420;39;113918;-77
2021/04/09 06:48:55;;;;;;;;;13.00;13.00;;;;;;;;3517245;39;111854;-72
2021/04/09 06:51:21;;;;;;;;;12.00;11.67;;;;;;;;3518028;39;113828;-71
2021/04/09 06:53:48;;;;;;;;;16.67;15.00;;;;;;;;3517239;39;114247;-71
2021/04/09 06:56:15;;;;;;;;;17.67;16.67;;;;;;;;3521240;39;112038;-69
2021/04/09 06:58:43;;;;;;;;;16.00;13.67;;;;;;;;3517144;39;113876;-73
2021/04/09 07:01:10;;;;;;;;;15.00;15.00;;;;;;;;3518749;39;111786;-71
2021/04/09 07:03:36;;;;;;;;;15.33;14.00;;;;;;;;3513436;39;113864;-72
2021/04/09 07:06:04;;;;;;;;;17.67;14.00;;;;;;;;3515035;39;114247;-72
2021/04/09 07:08:30;;;;;;;;;15.67;15.67;;;;;;;;3516997;39;112294;-72
2021/04/09 07:10:56;;;;;;;;;16.67;16.33;;;;;;;;3517882;39;113243;-73
2021/04/09 07:13:22;;;;;;;;;18.33;16.00;;;;;;;;3517126;39;113638;-73
2021/04/09 07:15:51;;;;;;;;;16.67;15.33;;;;;;;;3518232;39;111880;-74
2021/04/09 07:18:17;;;;;;;;;14.67;14.00;;;;;;;;3519356;39;113555;-73
2021/04/09 07:20:44;;;;;;;;;17.33;13.00;;;;;;;;3518733;39;111901;-73
2021/04/09 07:23:12;;;;;;;;;19.00;17.67;;;;;;;;3516651;39;113687;-72
2021/04/09 07:25:39;;;;;;;;;17.33;16.33;;;;;;;;3514479;39;113966;-68
2021/04/09 07:28:09;;;;;;;;;16.00;15.33;;;;;;;;3518380;39;112552;-73
2021/04/09 07:30:35;;;;;;;;;15.33;12.67;;;;;;;;3517122;39;113248;-73
2021/04/09 07:33:06;;;;;;;;;18.33;17.33;;;;;;;;3516303;39;116321;-73
2021/04/09 07:35:43;;;;;;;;;18.00;13.00;;;;;;;;3517583;39;111909;-73
2021/04/09 07:38:09;;;;;;;;;13.00;12.67;;;;;;;;3514666;39;113720;-71
2021/04/09 07:40:35;;;;;;;;;15.33;14.00;;;;;;;;3520406;39;114340;-71
2021/04/09 07:43:01;;;;;;;;;16.00;15.33;;;;;;;;3517116;39;113615;-74
2021/04/09 07:45:28;;;;;;;;;17.00;16.33;;;;;;;;3517242;39;114042;-72
2021/04/09 07:47:56;;;;;;;;;13.00;10.67;;;;;;;;3514159;39;112328;-73
2021/04/09 07:50:32;;;;;;;;;18.67;16.67;;;;;;;;3518307;39;113700;-75
2021/04/09 07:52:58;;;;;;;;;15.33;15.33;;;;;;;;3518052;39;114063;-73
2021/04/09 07:55:28;;;;;;;;;13.67;12.33;;;;;;;;3517186;39;112765;-74
2021/04/09 07:57:54;;;;;;;;;14.00;14.00;;;;;;;;3518834;39;113331;-74
2021/04/09 08:00:21;;;;;;;;;14.00;13.00;;;;;;;;3520126;39;114413;-74
2021/04/09 08:02:49;;;;;;;;;13.67;12.00;;;;;;;;3518886;39;113220;-76
2021/04/09 08:05:16;;;;;;;;;13.33;12.33;;;;;;;;3517059;39;113868;-72
2021/04/09 08:07:43;;;;;;;;;8.00;3.67;;;;;;;;3519354;39;111953;-73
2021/04/09 08:10:10;;;;;;;;;11.67;8.00;;;;;;;;3517959;39;113227;-74
2021/04/09 08:12:38;;;;;;;;;13.50;11.50;;;;;;;;3515505;39;114220;-73
2021/04/09 08:15:14;;;;;;;;;10.00;10.00;;;;;;;;3517502;39;112056;-70
2021/04/09 08:17:40;;;;;;;;;7.50;4.75;;;;;;;;3512271;39;113761;-73
2021/04/09 08:20:10;;;;;;;;;10.00;10.00;;;;;;;;3518891;39;114141;-73
2021/04/09 08:22:36;;;;;;;;;9.50;9.25;;;;;;;;3518588;39;112417;-76
2021/04/09 08:25:04;;;;;;;;;5.50;2.00;;;;;;;;3518350;39;114345;-76
2021/04/09 08:27:30;;;;;;;;;13.50;10.75;;;;;;;;3518421;39;112341;-73
2021/04/09 08:29:56;;;;;;;;;8.00;6.75;;;;;;;;3518502;39;113929;-73
2021/04/09 08:32:22;;;;;;;;;8.75;7.50;;;;;;;;3514543;39;113938;-73
2021/04/09 08:34:49;;;;;;;;;10.25;9.00;;;;;;;;3518819;39;112419;-72
2021/04/09 08:37:16;;;;;;;;;8.25;7.75;;;;;;;;3517602;39;113295;-71
2021/04/09 08:39:43;;;;;;;;;8.25;7.75;;;;;;;;3518880;39;113934;-70
2021/04/09 08:42:10;;;;;;;;;9.25;8.50;;;;;;;;3517626;39;111706;-68
2021/04/09 08:44:39;;;;;;;;;8.00;6.25;;;;;;;;3521446;39;113320;-69
2021/04/09 08:47:05;;;;;;;;;9.25;9.25;;;;;;;;3517443;39;112135;-71
2021/04/09 08:49:33;;;;;;;;;8.50;8.50;;;;;;;;3518819;39;113392;-70
2021/04/09 08:51:59;;;;;;;;;9.25;9.25;;;;;;;;3517099;39;114360;-69
2021/04/09 08:54:28;;;;;;;;;6.50;6.50;;;;;;;;3518171;39;111897;-71
2021/04/09 08:56:55;;;;;;;;;8.50;8.25;;;;;;;;3518515;39;113190;-71
2021/04/09 08:59:40;;;;;;;;;9.00;9.00;;;;;;;;3517900;39;113832;-71
2021/04/09 09:02:12;;;;;;;;;7.00;7.00;;;;;;;;3514996;39;112448;-70
2021/04/09 09:04:39;;;;;;;;;7.50;6.50;;;;;;;;3513643;39;113527;-70
2021/04/09 09:07:05;;;;;;;;;5.75;5.75;;;;;;;;3517260;39;114409;-71
2021/04/09 09:09:31;;;;;;;;;8.00;7.50;;;;;;;;3517188;39;113495;-71
2021/04/09 09:11:57;;;;;;;;;6.00;6.00;;;;;;;;3517914;39;114156;-73
2021/04/09 09:14:41;;;;;;;;;7.67;6.00;;;;;;;;3511258;39;112365;-72
2021/04/09 09:17:26;;;;;;;;;5.33;5.33;;;;;;;;3513911;39;113414;-71
2021/04/09 09:20:06;;;;;;;;;5.00;5.00;;;;;;;;3515102;39;114090;-71
2021/04/09 09:22:42;;;;;;;;;4.00;4.00;;;;;;;;3517005;39;113080;-72
2021/04/09 09:25:09;;;;;;;;;6.00;5.00;;;;;;;;3513332;39;113696;-71
2021/04/09 09:27:45;;;;;;;;;5.00;5.00;;;;;;;;3517443;39;114606;-72
2021/04/09 09:30:26;;;;;;;;;6.67;5.67;;;;;;;;3518142;39;112252;-72
2021/04/09 09:33:09;;;;;;;;;4.00;3.00;;;;;;;;3516601;39;114229;-75
2021/04/09 09:35:59;;;;;;;;;3.67;3.67;;;;;;;;3515451;39;112192;-71
2021/04/09 09:38:44;;;;;;;;;4.33;3.00;;;;;;;;3517250;39;113776;-76
2021/04/09 09:41:10;;;;;;;;;2.33;2.33;;;;;;;;3515030;39;113921;-76
2021/04/09 09:43:37;;;;;;;;;3.00;3.00;;;;;;;;3519043;39;112784;-71
2021/04/09 09:46:03;;;;;;;;;1.67;1.67;;;;;;;;3517778;39;113663;-72
2021/04/09 09:48:29;;;;;;;;;2.33;2.33;;;;;;;;3518442;39;114091;-73
2021/04/09 09:50:55;;;;;;;;;3.33;3.33;;;;;;;;3518750;39;112547;-73
2021/04/09 09:53:22;;;;;;;;;2.33;2.33;;;;;;;;3519716;39;113512;-75
2021/04/09 09:55:49;;;;;;;;;1.00;1.00;;;;;;;;3518908;39;111971;-73
2021/04/09 09:58:17;;;;;;;;;3.00;3.00;;;;;;;;3513431;39;113526;-74
2021/04/09 10:00:44;;;;;;;;;2.67;2.67;;;;;;;;3511691;39;112931;-75
2021/04/09 10:03:11;;;;;;;;;2.00;2.00;;;;;;;;3512595;39;112472;-73
2021/04/09 10:05:37;;;;;;;;;2.00;2.00;;;;;;;;3515881;39;113309;-73
2021/04/09 10:08:03;;;;;;;;;0.00;0.00;;;;;;;;3517042;39;113863;-73
2021/04/09 10:10:35;;;;;;;;;1.00;1.00;;;;;;;;3518246;39;111765;-73
2021/04/09 10:13:12;;;;;;;;;2.00;1.00;;;;;;;;3519692;39;113520;-75
2021/04/09 10:15:38;;;;;;;;;1.00;1.00;;;;;;;;3515431;39;112097;-74
2021/04/09 10:18:05;;;;;;;;;1.00;1.00;;;;;;;;3518608;39;113340;-74
2021/04/09 10:20:31;;;;;;;;;1.67;1.00;;;;;;;;3517506;39;113484;-76
2021/04/09 10:22:57;;;;;;;;;0.67;0.67;;;;;;;;3514238;39;111862;-76
2021/04/09 10:25:27;;;;;;;;;1.00;1.00;;;;;;;;3515224;39;113896;-79
2021/04/09 10:27:55;;;;;;;;;4.00;3.00;;;;;;;;3514405;39;113995;-76
2021/04/09 10:30:25;;;;;;;;;2.25;2.25;;;;;;;;3515298;39;112963;-75
2021/04/09 10:32:51;;;;;;;;;3.25;3.25;;;;;;;;3515055;39;113318;-74
2021/04/09 10:35:21;;;;;;;;;2.50;2.50;;;;;;;;3516879;39;114478;-76
2021/04/09 10:37:47;;;;;;;;;3.25;1.75;;;;;;;;3514690;39;113434;-74
2021/04/09 10:40:13;;;;;;;;;4.25;4.25;;;;;;;;3514549;39;114848;-75
2021/04/09 10:42:39;;;;;;;;;4.25;2.25;;;;;;;;3515139;39;112245;-75
2021/04/09 10:45:17;;;;;;;;;3.00;3.00;;;;;;;;3518291;39;113635;-76
2021/04/09 10:47:45;;;;;;;;;2.50;2.50;;;;;;;;3515184;39;114811;-76
2021/04/09 10:50:12;;;;;;;;;2.00;2.00;;;;;;;;3518400;39;111820;-75
2021/04/09 10:52:38;;;;;;;;;2.00;2.00;;;;;;;;3517136;39;113409;-75
2021/04/09 10:55:05;;;;;;;;;6.00;2.75;;;;;;;;3517827;39;114112;-76
2021/04/09 10:57:34;;;;;;;;;2.00;2.00;;;;;;;;3520611;39;111895;-76
2021/04/09 11:00:02;;;;;;;;;2.00;2.00;;;;;;;;3517473;39;114718;-75
2021/04/09 11:02:29;;;;;;;;;2.50;2.50;;;;;;;;3517692;39;111967;-76
2021/04/09 11:04:56;;;;;;;;;2.75;2.75;;;;;;;;3517896;39;114230;-79
2021/04/09 11:07:39;;;;;;;;;1.00;1.00;;;;;;;;3517112;39;114335;-76
2021/04/09 11:10:06;;;;;;;;;2.00;2.00;;;;;;;;3518069;39;112655;-75
2021/04/09 11:12:32;;;;;;;;;2.75;2.50;;;;;;;;3517606;39;113757;-75
2021/04/09 11:15:05;;;;;;;;;2.50;2.50;;;;;;;;3517630;39;114022;-76
2021/04/09 11:17:32;;;;;;;;;3.00;2.00;;;;;;;;3517815;39;112144;-77
2021/04/09 11:20:18;;;;;;;;;3.00;3.00;;;;;;;;3514633;39;113155;-77
2021/04/09 11:22:45;;;;;;;;;3.00;3.00;;;;;;;;3515759;39;112038;-73
2021/04/09 11:25:11;;;;;;;;;2.25;2.25;;;;;;;;3519627;39;113867;-76
2021/04/09 11:27:41;;;;;;;;;4.00;3.00;;;;;;;;3517914;39;113858;-74
2021/04/09 11:30:08;;;;;;;;;2.00;1.25;;;;;;;;3518998;39;112833;-73
2021/04/09 11:32:39;;;;;;;;;3.00;3.00;;;;;;;;3518492;39;113570;-75
2021/04/09 11:35:08;;;;;;;;;4.00;3.00;;;;;;;;3518751;39;114134;-73
2021/04/09 11:37:41;;;;;;;;;2.75;2.75;;;;;;;;3518112;39;112045;-76
2021/04/09 11:40:08;;;;;;;;;2.00;2.00;;;;;;;;3519177;39;113432;-76
2021/04/09 11:42:35;;;;;;;;;1.25;1.25;;;;;;;;3520473;39;114844;-73
2021/04/09 11:45:02;;;;;;;;;2.75;2.75;;;;;;;;3519296;39;113964;-72
2021/04/09 11:47:29;;;;;;;;;1.75;1.75;;;;;;;;3515992;39;114214;-74
2021/04/09 11:50:07;;;;;;;;;2.00;2.00;;;;;;;;3518689;39;111990;-73
2021/04/09 11:52:48;;;;;;;;;2.00;2.00;;;;;;;;3513607;39;113205;-71
2021/04/09 11:55:14;;;;;;;;;3.00;1.50;;;;;;;;3515497;39;114156;-73
2021/04/09 11:57:41;;;;;;;;;2.00;1.00;;;;;;;;3520017;39;112092;-75
2021/04/09 12:00:17;;;;;;;;;1.00;1.00;;;;;;;;3514536;39;113688;-74
2021/04/09 12:02:48;;;;;;;;;4.50;3.00;;;;;;;;3513152;39;114324;-75
2021/04/09 12:05:18;;;;;;;;;1.75;1.75;;;;;;;;3515095;39;112010;-76
2021/04/09 12:07:44;;;;;;;;;2.00;2.00;;;;;;;;3515793;39;114151;-71
2021/04/09 12:10:10;;;;;;;;;1.00;1.00;;;;;;;;3516327;39;111789;-69
2021/04/09 12:12:36;;;;;;;;;3.50;2.00;;;;;;;;3516943;39;113780;-68
2021/04/09 12:15:03;;;;;;;;;3.25;1.50;;;;;;;;3511488;39;113955;-69
2021/04/09 12:17:29;;;;;;;;;2.00;1.25;;;;;;;;3513957;39;111997;-68
2021/04/09 12:19:56;;;;;;;;;2.00;2.00;;;;;;;;3514607;39;112615;-68
2021/04/09 12:22:23;;;;;;;;;2.25;2.00;;;;;;;;3512091;39;113821;-68
2021/04/09 12:24:51;;;;;;;;;1.00;1.00;;;;;;;;3518243;39;111997;-68
2021/04/09 12:27:19;;;;;;;;;2.00;2.00;;;;;;;;3513482;39;114301;-68
2021/04/09 12:29:45;;;;;;;;;1.00;1.00;;;;;;;;3515465;39;112908;-69
2021/04/09 12:32:12;;;;;;;;;2.50;2.00;;;;;;;;3513521;39;113545;-70
2021/04/09 12:34:38;;;;;;;;;3.00;3.00;;;;;;;;3514724;39;113941;-71
2021/04/09 12:37:04;;;;;;;;;1.00;1.00;;;;;;;;3518730;39;111960;-73
2021/04/09 12:39:31;;;;;;;;;2.50;2.50;;;;;;;;3517985;39;113435;-71
2021/04/09 12:41:57;;;;;;;;;1.00;1.00;;;;;;;;3518590;39;113907;-75
2021/04/09 12:44:24;;;;;;;;;3.00;2.00;;;;;;;;3518649;39;111891;-71
2021/04/09 12:46:50;;;;;;;;;2.00;2.00;;;;;;;;3520492;39;113279;-69
2021/04/09 12:49:17;;;;;;;;;1.50;1.50;;;;;;;;3519048;39;112096;-70
2021/04/09 12:51:43;;;;;;;;;1.00;1.00;;;;;;;;3517542;39;113207;-70
2021/04/09 12:54:09;;;;;;;;;1.75;1.75;;;;;;;;3517664;39;114132;-68
2021/04/09 12:56:37;;;;;;;;;2.00;2.00;;;;;;;;3517236;39;113034;-66
2021/04/09 12:59:03;;;;;;;;;2.00;2.00;;;;;;;;3519279;39;114062;-77
2021/04/09 13:01:29;;;;;;;;;2.00;2.00;;;;;;;;3517733;39;113980;-72
2021/04/09 13:03:55;;;;;;;;;2.00;2.00;;;;;;;;3518982;39;112637;-70
2021/04/09 13:06:21;;;;;;;;;1.00;1.00;;;;;;;;3518516;39;113696;-73
2021/04/09 13:08:47;;;;;;;;;1.00;1.00;;;;;;;;3519457;39;114043;-72
2021/04/09 13:11:14;;;;;;;;;1.25;1.25;;;;;;;;3518104;39;113654;-74
2021/04/09 13:13:41;;;;;;;;;1.00;1.00;;;;;;;;3519025;39;113768;-72
2021/04/09 13:16:07;;;;;;;;;1.00;1.00;;;;;;;;3513376;39;112911;-71
2021/04/09 13:18:33;;;;;;;;;1.50;1.00;;;;;;;;3519335;39;113557;-69
2021/04/09 13:21:00;;;;;;;;;2.25;2.25;;;;;;;;3517962;39;113904;-74
2021/04/09 13:23:27;;;;;;;;;3.00;2.00;;;;;;;;3517877;39;111892;-71
2021/04/09 13:25:53;;;;;;;;;2.50;1.75;;;;;;;;3516422;39;113292;-72
2021/04/09 13:28:20;;;;;;;;;2.00;2.00;;;;;;;;3517189;39;113949;-72
2021/04/09 13:30:56;;;;;;;;;0.00;0.00;;;;;;;;3521868;39;112365;-72
2021/04/09 13:33:22;;;;;;;;;2.00;2.00;;;;;;;;3517441;39;114037;-72
2021/04/09 13:35:48;;;;;;;;;1.75;1.75;;;;;;;;3518770;39;112877;-72
2021/04/09 13:38:14;;;;;;;;;2.00;1.00;;;;;;;;3517530;39;113362;-71
2021/04/09 13:40:40;;;;;;;;;1.00;1.00;;;;;;;;3516833;39;114232;-71
2021/04/09 13:43:08;;;;;;;;;2.00;2.00;;;;;;;;3513199;39;112635;-71
2021/04/09 13:45:34;;;;;;;;;3.00;3.00;;;;;;;;3518524;39;113746;-72
2021/04/09 13:48:01;;;;;;;;;4.00;2.00;;;;;;;;3517309;39;114042;-73
2021/04/09 13:50:28;;;;;;;;;3.00;2.00;;;;;;;;3518475;39;111905;-73
2021/04/09 13:52:54;;;;;;;;;4.00;2.00;;;;;;;;3520768;39;113463;-73
2021/04/09 13:55:21;;;;;;;;;2.50;2.50;;;;;;;;3517473;39;112331;-71
2021/04/09 13:57:47;;;;;;;;;2.00;2.00;;;;;;;;3518820;39;113247;-84
2021/04/09 14:00:14;;;;;;;;;3.00;2.00;;;;;;;;3516719;39;114685;-72
2021/04/09 14:02:40;;;;;;;;;2.00;2.00;;;;;;;;3519210;39;111869;-70
2021/04/09 14:05:07;;;;;;;;;2.00;2.00;;;;;;;;3516950;39;113968;-68
2021/04/09 14:07:33;;;;;;;;;1.00;1.00;;;;;;;;3518372;39;114378;-68
2021/04/09 14:10:00;;;;;;;;;1.25;1.25;;;;;;;;3517855;39;112184;-67
2021/04/09 14:12:26;;;;;;;;;3.75;2.00;;;;;;;;3518400;39;114353;-70
2021/04/09 14:14:52;;;;;;;;;4.00;2.00;;;;;;;;3520626;39;111910;-68
2021/04/09 14:17:18;;;;;;;;;2.00;2.00;;;;;;;;3517020;39;113444;-70
2021/04/09 14:19:44;;;;;;;;;3.00;1.75;;;;;;;;3518280;39;113827;-73
2021/04/09 14:22:11;;;;;;;;;1.75;1.75;;;;;;;;3517011;39;111889;-72
2021/04/09 14:24:37;;;;;;;;;2.00;1.00;;;;;;;;3515247;39;113296;-74
2021/04/09 14:27:03;;;;;;;;;1.00;1.00;;;;;;;;3518312;39;113811;-73